女満別空港の過去48時間の天気

女満別空港 (Memanbetsu)

現在時刻: 8/18 23:04 JST (8/18 14:04 UTC) 以下の時間は現地時間です。

過去48時間のMETAR気象情報
時間 風向 風速(m/s) 視程 気温(℃) 湿度(%) 気圧(hPa) 天気現象
18 20:00 南南東 4 10km以上 18 88 1007 弱いしゅう雨
18 19:00 4 10km以上 19 94 1007 弱いしゅう雨
18 18:00 5 10km以上 20 88 1007 弱いしゅう雨
18 17:00 南南東 5 10km以上 21 78 1007 弱いしゅう雨
18 16:00 南南東 4 10km以上 21 78 1007
18 15:00 南南東 6 10km以上 22 73 1007
18 14:00 6 10km以上 23 69 1007
18 13:00 南南東 6 10km以上 23 69 1008
18 12:00 南南東 7 10km以上 24 65 1008
18 11:00 6 10km以上 25 65 1008
18 10:00 4 10km以上 24 74 1009
18 09:00 5 10km以上 23 78 1009
18 08:00 南西 3 10km以上 21 83 1010
18 07:45 南西 2 10km以上 20 83 1010
17 20:00 不定 1 10km以上 19 88 1011
17 19:00 南東 2 10km以上 20 83 1010
17 18:00 東南東 2 10km以上 22 78 1010
17 17:00 東北東 3 10km以上 23 73 1009
17 16:00 3 10km以上 24 69 1009
17 15:00 北北東 3 10km以上 24 69 1008
17 14:00 北北東 4 10km以上 24 65 1008
17 13:00 北北東 6 10km以上 24 69 1008
17 12:00 北北東 5 10km以上 24 69 1007
17 11:00 北北東 4 10km以上 23 73 1007
17 10:00 3 10km以上 22 78 1007
17 09:00 北北西 3 10km以上 20 88 1007
17 08:00 6 10km以上 20 83 1006
17 07:45 6 10km以上 19 88 1006
RJCM 181100Z 15007KT 9999 -SHRA FEW010 SCT040 BKN100 18/16 Q1007
RJCM 181000Z 17007KT 9999 -SHRA FEW010 SCT100 BKN130 19/18 Q1007
RJCM 180900Z 18009KT 9999 -SHRA FEW015 SCT100 BKN120 20/18 Q1007
RJCM 180800Z 16009KT 9999 -SHRA FEW020 SCT080 BKN120 21/17 Q1007
RJCM 180700Z 15007KT 9999 FEW020 SCT140 BKN160 21/17 Q1007
RJCM 180600Z 16011KT 9999 FEW025 SCT160 BKN/// 22/17 Q1007
RJCM 180500Z 17012KT 9999 FEW025 SCT180 BKN/// 23/17 Q1007
RJCM 180400Z 16012KT 9999 FEW025 BKN/// 23/17 Q1008
RJCM 180300Z 16013KT 9999 FEW025 BKN/// 24/17 Q1008
RJCM 180200Z 17012KT 9999 FEW025 BKN/// 25/18 Q1008
RJCM 180100Z 17007KT 140V200 9999 FEW025 BKN/// 24/19 Q1009
RJCM 180000Z 19009KT 9999 FEW015 BKN/// 23/19 Q1009
RJCM 172300Z 22005KT 180V280 9999 FEW010 BKN/// 21/18 Q1010
RJCM 172245Z 23003KT 200V260 9999 FEW010 BKN/// 20/17 Q1010 RMK 1ST010 A2984
RJCM 171100Z VRB02KT 9999 FEW020 19/17 Q1011
RJCM 171000Z 13004KT 9999 FEW020 20/17 Q1010
RJCM 170900Z 12004KT 090V200 9999 FEW025 22/18 Q1010
RJCM 170800Z 07005KT 9999 FEW025 23/18 Q1009
RJCM 170700Z 08005KT 020V140 9999 FEW025 24/18 Q1009
RJCM 170600Z 03006KT 340V090 9999 FEW025 24/18 Q1008
RJCM 170500Z 03008KT 9999 FEW020 24/17 Q1008
RJCM 170400Z 02011KT 9999 FEW020 24/18 Q1008
RJCM 170300Z 03010KT 9999 FEW015 SCT020 24/18 Q1007
RJCM 170200Z 02008KT 9999 FEW015 SCT020 23/18 Q1007
RJCM 170100Z 35006KT 310V040 9999 FEW015 SCT020 22/18 Q1007
RJCM 170000Z 34006KT 300V030 9999 FEW010 SCT015 BKN020 20/18 Q1007
RJCM 162300Z 35011KT 9999 FEW008 SCT010 BKN050 20/17 Q1006
RJCM 162245Z 35011KT 320V020 9999 FEW008 SCT030 19/17 Q1006 RMK 1ST008 3CU030 A2972